sensor_id;sensor_type;location;lat;lon;timestamp;P1;durP1;ratioP1;P2;durP2;ratioP2
6133;SDS011;3098;42.678;23.364;2023-04-24T00:02:12;9.02;;;4.05;;
6133;SDS011;3098;42.678;23.364;2023-04-24T00:04:40;6.93;;;3.95;;
6133;SDS011;3098;42.678;23.364;2023-04-24T00:07:09;6.78;;;3.85;;
6133;SDS011;3098;42.678;23.364;2023-04-24T00:09:38;7.32;;;4.50;;
6133;SDS011;3098;42.678;23.364;2023-04-24T00:12:07;6.93;;;4.20;;
6133;SDS011;3098;42.678;23.364;2023-04-24T00:14:34;7.65;;;4.15;;
6133;SDS011;3098;42.678;23.364;2023-04-24T00:17:02;5.75;;;3.70;;
6133;SDS011;3098;42.678;23.364;2023-04-24T00:19:29;7.03;;;4.10;;
6133;SDS011;3098;42.678;23.364;2023-04-24T00:21:57;8.73;;;4.05;;
6133;SDS011;3098;42.678;23.364;2023-04-24T00:24:24;8.25;;;4.03;;
6133;SDS011;3098;42.678;23.364;2023-04-24T00:26:53;12.75;;;4.03;;
6133;SDS011;3098;42.678;23.364;2023-04-24T00:29:20;15.00;;;4.30;;
6133;SDS011;3098;42.678;23.364;2023-04-24T00:31:47;9.95;;;4.07;;
6133;SDS011;3098;42.678;23.364;2023-04-24T00:34:14;7.32;;;4.15;;
6133;SDS011;3098;42.678;23.364;2023-04-24T00:36:41;10.02;;;4.13;;
6133;SDS011;3098;42.678;23.364;2023-04-24T00:39:09;9.45;;;4.60;;
6133;SDS011;3098;42.678;23.364;2023-04-24T00:41:36;11.52;;;3.85;;
6133;SDS011;3098;42.678;23.364;2023-04-24T00:44:05;9.20;;;4.22;;
6133;SDS011;3098;42.678;23.364;2023-04-24T00:46:32;8.55;;;4.40;;
6133;SDS011;3098;42.678;23.364;2023-04-24T00:48:59;10.30;;;4.05;;
6133;SDS011;3098;42.678;23.364;2023-04-24T00:51:27;7.32;;;4.10;;
6133;SDS011;3098;42.678;23.364;2023-04-24T00:53:55;9.38;;;4.60;;
6133;SDS011;3098;42.678;23.364;2023-04-24T00:56:23;10.93;;;4.60;;
6133;SDS011;3098;42.678;23.364;2023-04-24T00:58:51;8.30;;;4.55;;
6133;SDS011;3098;42.678;23.364;2023-04-24T01:01:19;9.95;;;4.65;;
6133;SDS011;3098;42.678;23.364;2023-04-24T01:03:48;11.43;;;4.35;;
6133;SDS011;3098;42.678;23.364;2023-04-24T01:06:18;16.65;;;4.35;;
6133;SDS011;3098;42.678;23.364;2023-04-24T01:08:46;10.23;;;4.47;;
6133;SDS011;3098;42.678;23.364;2023-04-24T01:11:14;6.82;;;4.28;;
6133;SDS011;3098;42.678;23.364;2023-04-24T01:13:41;8.43;;;4.50;;
6133;SDS011;3098;42.678;23.364;2023-04-24T01:16:08;7.40;;;4.47;;
6133;SDS011;3098;42.678;23.364;2023-04-24T01:18:37;11.00;;;4.22;;
6133;SDS011;3098;42.678;23.364;2023-04-24T01:21:05;7.03;;;4.15;;
6133;SDS011;3098;42.678;23.364;2023-04-24T01:23:37;7.00;;;4.53;;
6133;SDS011;3098;42.678;23.364;2023-04-24T01:26:05;8.98;;;4.47;;
6133;SDS011;3098;42.678;23.364;2023-04-24T01:28:32;13.25;;;4.18;;
6133;SDS011;3098;42.678;23.364;2023-04-24T01:31:00;9.38;;;4.88;;
6133;SDS011;3098;42.678;23.364;2023-04-24T01:33:27;8.18;;;4.57;;
6133;SDS011;3098;42.678;23.364;2023-04-24T01:35:54;9.13;;;4.38;;
6133;SDS011;3098;42.678;23.364;2023-04-24T01:38:22;7.80;;;4.60;;
6133;SDS011;3098;42.678;23.364;2023-04-24T01:40:51;6.97;;;4.35;;
6133;SDS011;3098;42.678;23.364;2023-04-24T01:43:20;8.52;;;4.47;;
6133;SDS011;3098;42.678;23.364;2023-04-24T01:45:48;7.82;;;4.45;;
6133;SDS011;3098;42.678;23.364;2023-04-24T01:48:15;10.57;;;4.90;;
6133;SDS011;3098;42.678;23.364;2023-04-24T01:50:42;9.90;;;4.88;;
6133;SDS011;3098;42.678;23.364;2023-04-24T01:53:09;18.38;;;4.88;;
6133;SDS011;3098;42.678;23.364;2023-04-24T01:55:36;11.32;;;5.15;;
6133;SDS011;3098;42.678;23.364;2023-04-24T01:58:05;12.52;;;5.35;;
6133;SDS011;3098;42.678;23.364;2023-04-24T02:00:32;12.38;;;5.10;;
6133;SDS011;3098;42.678;23.364;2023-04-24T02:02:59;8.98;;;4.75;;
6133;SDS011;3098;42.678;23.364;2023-04-24T02:05:27;10.38;;;5.55;;
6133;SDS011;3098;42.678;23.364;2023-04-24T02:07:54;6.38;;;4.60;;
6133;SDS011;3098;42.678;23.364;2023-04-24T02:10:21;13.05;;;5.30;;
6133;SDS011;3098;42.678;23.364;2023-04-24T02:12:48;9.10;;;5.40;;
6133;SDS011;3098;42.678;23.364;2023-04-24T02:15:17;9.48;;;5.50;;
6133;SDS011;3098;42.678;23.364;2023-04-24T02:17:44;12.60;;;5.65;;
6133;SDS011;3098;42.678;23.364;2023-04-24T02:20:11;14.77;;;4.90;;
6133;SDS011;3098;42.678;23.364;2023-04-24T02:22:38;8.70;;;5.18;;
6133;SDS011;3098;42.678;23.364;2023-04-24T02:25:06;10.35;;;4.50;;
6133;SDS011;3098;42.678;23.364;2023-04-24T02:27:34;9.13;;;5.53;;
6133;SDS011;3098;42.678;23.364;2023-04-24T02:30:02;10.35;;;5.30;;
6133;SDS011;3098;42.678;23.364;2023-04-24T02:32:31;8.52;;;5.00;;
6133;SDS011;3098;42.678;23.364;2023-04-24T02:34:59;11.80;;;5.68;;
6133;SDS011;3098;42.678;23.364;2023-04-24T02:37:26;14.65;;;6.05;;
6133;SDS011;3098;42.678;23.364;2023-04-24T02:39:53;14.10;;;6.05;;
6133;SDS011;3098;42.678;23.364;2023-04-24T02:42:20;10.80;;;6.07;;
6133;SDS011;3098;42.678;23.364;2023-04-24T02:44:47;13.13;;;5.72;;
6133;SDS011;3098;42.678;23.364;2023-04-24T02:47:16;9.93;;;5.55;;
6133;SDS011;3098;42.678;23.364;2023-04-24T02:49:45;13.75;;;6.13;;
6133;SDS011;3098;42.678;23.364;2023-04-24T02:52:12;11.32;;;6.47;;
6133;SDS011;3098;42.678;23.364;2023-04-24T02:54:40;19.38;;;6.00;;
6133;SDS011;3098;42.678;23.364;2023-04-24T02:57:07;12.98;;;5.85;;
6133;SDS011;3098;42.678;23.364;2023-04-24T02:59:34;13.35;;;6.07;;
6133;SDS011;3098;42.678;23.364;2023-04-24T03:02:01;13.02;;;6.63;;
6133;SDS011;3098;42.678;23.364;2023-04-24T03:04:28;16.80;;;6.18;;
6133;SDS011;3098;42.678;23.364;2023-04-24T03:06:57;10.38;;;5.72;;
6133;SDS011;3098;42.678;23.364;2023-04-24T03:09:24;17.02;;;5.72;;
6133;SDS011;3098;42.678;23.364;2023-04-24T03:11:51;10.93;;;6.03;;
6133;SDS011;3098;42.678;23.364;2023-04-24T03:14:18;11.77;;;6.30;;
6133;SDS011;3098;42.678;23.364;2023-04-24T03:16:46;10.45;;;6.13;;
6133;SDS011;3098;42.678;23.364;2023-04-24T03:19:13;11.85;;;6.15;;
6133;SDS011;3098;42.678;23.364;2023-04-24T03:21:40;11.60;;;6.38;;
6133;SDS011;3098;42.678;23.364;2023-04-24T03:24:08;11.68;;;6.07;;
6133;SDS011;3098;42.678;23.364;2023-04-24T03:26:35;9.75;;;5.50;;
6133;SDS011;3098;42.678;23.364;2023-04-24T03:29:03;16.42;;;6.00;;
6133;SDS011;3098;42.678;23.364;2023-04-24T03:31:30;14.00;;;6.38;;
6133;SDS011;3098;42.678;23.364;2023-04-24T03:33:57;9.70;;;5.50;;
6133;SDS011;3098;42.678;23.364;2023-04-24T03:36:24;13.82;;;6.35;;
6133;SDS011;3098;42.678;23.364;2023-04-24T03:38:51;10.30;;;5.70;;
6133;SDS011;3098;42.678;23.364;2023-04-24T03:41:20;11.00;;;6.28;;
6133;SDS011;3098;42.678;23.364;2023-04-24T03:43:47;12.93;;;5.65;;
6133;SDS011;3098;42.678;23.364;2023-04-24T03:46:15;9.00;;;6.10;;
6133;SDS011;3098;42.678;23.364;2023-04-24T03:48:42;14.10;;;6.57;;
6133;SDS011;3098;42.678;23.364;2023-04-24T03:51:09;20.38;;;6.40;;
6133;SDS011;3098;42.678;23.364;2023-04-24T03:53:36;12.18;;;6.53;;
6133;SDS011;3098;42.678;23.364;2023-04-24T03:56:03;10.15;;;6.00;;
6133;SDS011;3098;42.678;23.364;2023-04-24T03:58:32;16.58;;;5.82;;
6133;SDS011;3098;42.678;23.364;2023-04-24T04:00:59;8.90;;;5.30;;
6133;SDS011;3098;42.678;23.364;2023-04-24T04:03:25;10.60;;;5.47;;
6133;SDS011;3098;42.678;23.364;2023-04-24T04:05:53;8.30;;;4.90;;
6133;SDS011;3098;42.678;23.364;2023-04-24T04:08:20;9.32;;;5.35;;
6133;SDS011;3098;42.678;23.364;2023-04-24T04:10:47;9.13;;;5.18;;
6133;SDS011;3098;42.678;23.364;2023-04-24T04:13:14;8.55;;;4.90;;
6133;SDS011;3098;42.678;23.364;2023-04-24T04:15:43;24.05;;;11.90;;
6133;SDS011;3098;42.678;23.364;2023-04-24T04:18:10;12.63;;;4.93;;
6133;SDS011;3098;42.678;23.364;2023-04-24T04:20:37;16.65;;;5.47;;
6133;SDS011;3098;42.678;23.364;2023-04-24T04:23:04;10.95;;;4.80;;
6133;SDS011;3098;42.678;23.364;2023-04-24T04:25:32;10.95;;;4.78;;
6133;SDS011;3098;42.678;23.364;2023-04-24T04:27:59;8.68;;;4.93;;
6133;SDS011;3098;42.678;23.364;2023-04-24T04:30:27;6.82;;;4.38;;
6133;SDS011;3098;42.678;23.364;2023-04-24T04:32:58;9.88;;;4.07;;
6133;SDS011;3098;42.678;23.364;2023-04-24T04:35:26;8.27;;;4.82;;
6133;SDS011;3098;42.678;23.364;2023-04-24T04:37:53;8.68;;;5.05;;
6133;SDS011;3098;42.678;23.364;2023-04-24T04:40:21;7.25;;;4.50;;
6133;SDS011;3098;42.678;23.364;2023-04-24T04:42:49;13.68;;;4.82;;
6133;SDS011;3098;42.678;23.364;2023-04-24T04:45:18;15.73;;;4.45;;
6133;SDS011;3098;42.678;23.364;2023-04-24T04:47:45;13.38;;;4.88;;
6133;SDS011;3098;42.678;23.364;2023-04-24T04:50:14;12.98;;;4.63;;
6133;SDS011;3098;42.678;23.364;2023-04-24T04:52:41;18.95;;;5.43;;
6133;SDS011;3098;42.678;23.364;2023-04-24T04:55:08;6.88;;;4.35;;
6133;SDS011;3098;42.678;23.364;2023-04-24T04:57:36;11.25;;;4.88;;
6133;SDS011;3098;42.678;23.364;2023-04-24T05:00:05;12.10;;;4.50;;
6133;SDS011;3098;42.678;23.364;2023-04-24T05:02:35;10.75;;;4.90;;
6133;SDS011;3098;42.678;23.364;2023-04-24T05:05:04;13.65;;;4.88;;
6133;SDS011;3098;42.678;23.364;2023-04-24T05:07:33;19.88;;;7.85;;
6133;SDS011;3098;42.678;23.364;2023-04-24T05:10:02;11.18;;;4.97;;
6133;SDS011;3098;42.678;23.364;2023-04-24T05:12:30;9.55;;;5.05;;
6133;SDS011;3098;42.678;23.364;2023-04-24T05:14:58;11.70;;;5.65;;
6133;SDS011;3098;42.678;23.364;2023-04-24T05:17:26;17.58;;;5.25;;
6133;SDS011;3098;42.678;23.364;2023-04-24T05:19:54;7.93;;;4.78;;
6133;SDS011;3098;42.678;23.364;2023-04-24T05:22:22;10.88;;;5.38;;
6133;SDS011;3098;42.678;23.364;2023-04-24T05:24:50;14.82;;;6.25;;
6133;SDS011;3098;42.678;23.364;2023-04-24T05:27:18;11.13;;;5.18;;
6133;SDS011;3098;42.678;23.364;2023-04-24T05:29:45;10.32;;;5.45;;
6133;SDS011;3098;42.678;23.364;2023-04-24T05:32:13;15.02;;;6.80;;
6133;SDS011;3098;42.678;23.364;2023-04-24T05:34:40;10.52;;;5.85;;
6133;SDS011;3098;42.678;23.364;2023-04-24T05:37:08;12.40;;;5.95;;
6133;SDS011;3098;42.678;23.364;2023-04-24T05:39:35;12.40;;;5.82;;
6133;SDS011;3098;42.678;23.364;2023-04-24T05:42:04;11.93;;;6.35;;
6133;SDS011;3098;42.678;23.364;2023-04-24T05:44:31;22.10;;;6.72;;
6133;SDS011;3098;42.678;23.364;2023-04-24T05:46:59;13.00;;;6.72;;
6133;SDS011;3098;42.678;23.364;2023-04-24T05:49:27;17.02;;;7.45;;
6133;SDS011;3098;42.678;23.364;2023-04-24T05:51:54;18.70;;;6.72;;
6133;SDS011;3098;42.678;23.364;2023-04-24T05:54:23;11.68;;;5.65;;
6133;SDS011;3098;42.678;23.364;2023-04-24T05:56:49;13.20;;;7.00;;
6133;SDS011;3098;42.678;23.364;2023-04-24T05:59:18;15.75;;;6.60;;
6133;SDS011;3098;42.678;23.364;2023-04-24T06:01:46;18.10;;;6.68;;
6133;SDS011;3098;42.678;23.364;2023-04-24T06:04:14;12.73;;;6.68;;
6133;SDS011;3098;42.678;23.364;2023-04-24T06:06:41;13.50;;;7.25;;
6133;SDS011;3098;42.678;23.364;2023-04-24T06:09:09;14.90;;;6.95;;
6133;SDS011;3098;42.678;23.364;2023-04-24T06:11:37;19.50;;;6.93;;
6133;SDS011;3098;42.678;23.364;2023-04-24T06:14:04;14.30;;;7.00;;
6133;SDS011;3098;42.678;23.364;2023-04-24T06:16:35;12.05;;;6.70;;
6133;SDS011;3098;42.678;23.364;2023-04-24T06:19:03;10.63;;;5.85;;
6133;SDS011;3098;42.678;23.364;2023-04-24T06:21:31;14.82;;;7.15;;
6133;SDS011;3098;42.678;23.364;2023-04-24T06:23:58;12.30;;;6.88;;
6133;SDS011;3098;42.678;23.364;2023-04-24T06:26:25;21.35;;;6.43;;
6133;SDS011;3098;42.678;23.364;2023-04-24T06:28:53;15.27;;;7.18;;
6133;SDS011;3098;42.678;23.364;2023-04-24T06:31:20;13.00;;;7.00;;
6133;SDS011;3098;42.678;23.364;2023-04-24T06:33:49;14.50;;;6.80;;
6133;SDS011;3098;42.678;23.364;2023-04-24T06:36:18;16.17;;;6.85;;
6133;SDS011;3098;42.678;23.364;2023-04-24T06:38:45;16.52;;;7.25;;
6133;SDS011;3098;42.678;23.364;2023-04-24T06:41:12;19.33;;;7.80;;
6133;SDS011;3098;42.678;23.364;2023-04-24T06:43:40;12.65;;;7.40;;
6133;SDS011;3098;42.678;23.364;2023-04-24T06:46:07;12.60;;;6.53;;
6133;SDS011;3098;42.678;23.364;2023-04-24T06:48:34;17.27;;;7.05;;
6133;SDS011;3098;42.678;23.364;2023-04-24T06:51:03;11.57;;;7.15;;
6133;SDS011;3098;42.678;23.364;2023-04-24T06:53:30;22.60;;;6.70;;
6133;SDS011;3098;42.678;23.364;2023-04-24T06:55:58;15.52;;;8.63;;
6133;SDS011;3098;42.678;23.364;2023-04-24T06:58:25;15.18;;;8.02;;
6133;SDS011;3098;42.678;23.364;2023-04-24T07:00:54;13.23;;;5.75;;
6133;SDS011;3098;42.678;23.364;2023-04-24T07:03:21;14.38;;;7.13;;
6133;SDS011;3098;42.678;23.364;2023-04-24T07:05:48;17.88;;;8.85;;
6133;SDS011;3098;42.678;23.364;2023-04-24T07:08:18;26.05;;;11.07;;
6133;SDS011;3098;42.678;23.364;2023-04-24T07:10:47;16.95;;;7.65;;
6133;SDS011;3098;42.678;23.364;2023-04-24T07:13:15;14.93;;;6.70;;
6133;SDS011;3098;42.678;23.364;2023-04-24T07:15:42;17.95;;;9.35;;
6133;SDS011;3098;42.678;23.364;2023-04-24T07:18:09;13.60;;;8.02;;
6133;SDS011;3098;42.678;23.364;2023-04-24T07:20:37;14.88;;;7.55;;
6133;SDS011;3098;42.678;23.364;2023-04-24T07:23:04;20.88;;;9.15;;
6133;SDS011;3098;42.678;23.364;2023-04-24T07:25:33;18.40;;;9.50;;
6133;SDS011;3098;42.678;23.364;2023-04-24T07:28:01;10.05;;;6.25;;
6133;SDS011;3098;42.678;23.364;2023-04-24T07:30:29;11.32;;;6.22;;
6133;SDS011;3098;42.678;23.364;2023-04-24T07:32:58;19.38;;;7.80;;
6133;SDS011;3098;42.678;23.364;2023-04-24T07:35:26;12.80;;;6.57;;
6133;SDS011;3098;42.678;23.364;2023-04-24T07:37:54;11.55;;;7.32;;
6133;SDS011;3098;42.678;23.364;2023-04-24T07:40:21;14.25;;;6.28;;
6133;SDS011;3098;42.678;23.364;2023-04-24T07:42:50;10.52;;;6.55;;
6133;SDS011;3098;42.678;23.364;2023-04-24T07:45:18;11.95;;;6.18;;
6133;SDS011;3098;42.678;23.364;2023-04-24T07:47:45;13.98;;;7.28;;
6133;SDS011;3098;42.678;23.364;2023-04-24T07:50:13;13.27;;;6.15;;
6133;SDS011;3098;42.678;23.364;2023-04-24T07:52:41;13.93;;;7.43;;
6133;SDS011;3098;42.678;23.364;2023-04-24T07:55:09;17.25;;;7.45;;
6133;SDS011;3098;42.678;23.364;2023-04-24T07:57:37;10.13;;;5.97;;
6133;SDS011;3098;42.678;23.364;2023-04-24T08:00:07;6.68;;;4.82;;
6133;SDS011;3098;42.678;23.364;2023-04-24T08:02:36;5.30;;;3.58;;
6133;SDS011;3098;42.678;23.364;2023-04-24T08:05:03;10.77;;;4.60;;
6133;SDS011;3098;42.678;23.364;2023-04-24T08:07:31;16.27;;;6.93;;
6133;SDS011;3098;42.678;23.364;2023-04-24T08:10:00;8.82;;;5.80;;
6133;SDS011;3098;42.678;23.364;2023-04-24T08:12:27;14.27;;;6.20;;
6133;SDS011;3098;42.678;23.364;2023-04-24T08:14:57;9.52;;;5.72;;
6133;SDS011;3098;42.678;23.364;2023-04-24T08:17:30;15.55;;;6.03;;
6133;SDS011;3098;42.678;23.364;2023-04-24T08:19:58;10.07;;;5.90;;
6133;SDS011;3098;42.678;23.364;2023-04-24T08:22:30;10.95;;;5.70;;
6133;SDS011;3098;42.678;23.364;2023-04-24T08:24:59;10.52;;;5.47;;
6133;SDS011;3098;42.678;23.364;2023-04-24T08:27:28;10.38;;;4.93;;
6133;SDS011;3098;42.678;23.364;2023-04-24T08:29:56;12.93;;;5.15;;
6133;SDS011;3098;42.678;23.364;2023-04-24T08:32:24;7.57;;;4.68;;
6133;SDS011;3098;42.678;23.364;2023-04-24T08:34:57;9.68;;;5.25;;
6133;SDS011;3098;42.678;23.364;2023-04-24T08:37:26;6.75;;;4.88;;
6133;SDS011;3098;42.678;23.364;2023-04-24T08:39:55;8.75;;;5.20;;
6133;SDS011;3098;42.678;23.364;2023-04-24T08:42:23;9.10;;;4.70;;
6133;SDS011;3098;42.678;23.364;2023-04-24T08:44:52;6.85;;;4.85;;
6133;SDS011;3098;42.678;23.364;2023-04-24T08:47:19;8.23;;;4.50;;
6133;SDS011;3098;42.678;23.364;2023-04-24T08:49:47;8.50;;;4.63;;
6133;SDS011;3098;42.678;23.364;2023-04-24T08:52:18;6.93;;;4.53;;
6133;SDS011;3098;42.678;23.364;2023-04-24T08:54:47;10.95;;;4.63;;
6133;SDS011;3098;42.678;23.364;2023-04-24T08:57:15;6.57;;;4.60;;
6133;SDS011;3098;42.678;23.364;2023-04-24T08:59:45;10.75;;;4.63;;
6133;SDS011;3098;42.678;23.364;2023-04-24T09:02:14;6.80;;;4.60;;
6133;SDS011;3098;42.678;23.364;2023-04-24T09:04:44;7.65;;;4.22;;
6133;SDS011;3098;42.678;23.364;2023-04-24T09:07:14;6.18;;;4.20;;
6133;SDS011;3098;42.678;23.364;2023-04-24T09:09:45;9.15;;;4.25;;
6133;SDS011;3098;42.678;23.364;2023-04-24T09:12:14;5.88;;;4.20;;
6133;SDS011;3098;42.678;23.364;2023-04-24T09:14:42;12.90;;;5.10;;
6133;SDS011;3098;42.678;23.364;2023-04-24T09:17:10;6.57;;;4.40;;
6133;SDS011;3098;42.678;23.364;2023-04-24T09:19:38;9.32;;;4.63;;
6133;SDS011;3098;42.678;23.364;2023-04-24T09:22:05;7.75;;;5.20;;
6133;SDS011;3098;42.678;23.364;2023-04-24T09:24:34;7.22;;;4.40;;
6133;SDS011;3098;42.678;23.364;2023-04-24T09:27:03;8.38;;;4.72;;
6133;SDS011;3098;42.678;23.364;2023-04-24T09:29:30;11.93;;;5.13;;
6133;SDS011;3098;42.678;23.364;2023-04-24T09:31:58;6.63;;;4.38;;
6133;SDS011;3098;42.678;23.364;2023-04-24T09:34:26;10.35;;;4.65;;
6133;SDS011;3098;42.678;23.364;2023-04-24T09:36:55;8.63;;;5.82;;
6133;SDS011;3098;42.678;23.364;2023-04-24T09:39:24;6.60;;;4.60;;
6133;SDS011;3098;42.678;23.364;2023-04-24T09:41:52;7.10;;;4.43;;
6133;SDS011;3098;42.678;23.364;2023-04-24T09:44:22;8.48;;;4.70;;
6133;SDS011;3098;42.678;23.364;2023-04-24T09:46:51;8.57;;;4.25;;
6133;SDS011;3098;42.678;23.364;2023-04-24T09:49:22;6.38;;;4.30;;
6133;SDS011;3098;42.678;23.364;2023-04-24T09:51:51;5.88;;;3.75;;
6133;SDS011;3098;42.678;23.364;2023-04-24T09:54:19;6.68;;;4.47;;
6133;SDS011;3098;42.678;23.364;2023-04-24T09:56:51;13.10;;;4.68;;
6133;SDS011;3098;42.678;23.364;2023-04-24T09:59:19;8.38;;;4.70;;
6133;SDS011;3098;42.678;23.364;2023-04-24T10:01:51;7.97;;;4.13;;
6133;SDS011;3098;42.678;23.364;2023-04-24T10:04:20;8.70;;;3.90;;
6133;SDS011;3098;42.678;23.364;2023-04-24T10:06:51;8.15;;;4.20;;
6133;SDS011;3098;42.678;23.364;2023-04-24T10:09:23;7.00;;;4.03;;
6133;SDS011;3098;42.678;23.364;2023-04-24T10:11:53;6.05;;;4.57;;
6133;SDS011;3098;42.678;23.364;2023-04-24T10:14:22;6.25;;;4.50;;
6133;SDS011;3098;42.678;23.364;2023-04-24T10:16:54;6.38;;;4.40;;
6133;SDS011;3098;42.678;23.364;2023-04-24T10:19:24;5.47;;;3.90;;
6133;SDS011;3098;42.678;23.364;2023-04-24T10:21:53;9.50;;;4.38;;
6133;SDS011;3098;42.678;23.364;2023-04-24T10:24:21;5.93;;;3.95;;
6133;SDS011;3098;42.678;23.364;2023-04-24T10:26:50;5.57;;;3.63;;
6133;SDS011;3098;42.678;23.364;2023-04-24T10:29:19;7.80;;;4.22;;
6133;SDS011;3098;42.678;23.364;2023-04-24T10:31:48;6.72;;;4.22;;
6133;SDS011;3098;42.678;23.364;2023-04-24T10:34:17;6.53;;;3.75;;
6133;SDS011;3098;42.678;23.364;2023-04-24T10:36:49;7.35;;;3.85;;
6133;SDS011;3098;42.678;23.364;2023-04-24T10:39:18;9.05;;;4.40;;
6133;SDS011;3098;42.678;23.364;2023-04-24T10:41:48;11.52;;;4.68;;
6133;SDS011;3098;42.678;23.364;2023-04-24T10:44:15;9.63;;;4.63;;
6133;SDS011;3098;42.678;23.364;2023-04-24T10:46:43;7.50;;;4.03;;
6133;SDS011;3098;42.678;23.364;2023-04-24T10:49:12;6.88;;;3.63;;
6133;SDS011;3098;42.678;23.364;2023-04-24T10:51:48;10.43;;;4.25;;
6133;SDS011;3098;42.678;23.364;2023-04-24T10:54:28;13.27;;;3.72;;
6133;SDS011;3098;42.678;23.364;2023-04-24T11:00:10;9.93;;;4.57;;
6133;SDS011;3098;42.678;23.364;2023-04-24T11:02:41;11.65;;;4.47;;
6133;SDS011;3098;42.678;23.364;2023-04-24T11:05:15;8.15;;;4.20;;
6133;SDS011;3098;42.678;23.364;2023-04-24T11:10:43;6.65;;;4.00;;
6133;SDS011;3098;42.678;23.364;2023-04-24T11:13:14;10.82;;;3.88;;
6133;SDS011;3098;42.678;23.364;2023-04-24T11:15:43;8.13;;;4.25;;
6133;SDS011;3098;42.678;23.364;2023-04-24T11:18:13;5.78;;;3.95;;
6133;SDS011;3098;42.678;23.364;2023-04-24T11:20:43;7.22;;;4.50;;
6133;SDS011;3098;42.678;23.364;2023-04-24T11:23:13;7.00;;;4.22;;
6133;SDS011;3098;42.678;23.364;2023-04-24T11:25:42;10.10;;;4.22;;
6133;SDS011;3098;42.678;23.364;2023-04-24T11:28:10;7.78;;;4.53;;
6133;SDS011;3098;42.678;23.364;2023-04-24T11:30:42;11.35;;;4.25;;
6133;SDS011;3098;42.678;23.364;2023-04-24T11:33:10;12.30;;;4.85;;
6133;SDS011;3098;42.678;23.364;2023-04-24T11:35:39;10.05;;;3.88;;
6133;SDS011;3098;42.678;23.364;2023-04-24T11:38:08;7.93;;;4.40;;
6133;SDS011;3098;42.678;23.364;2023-04-24T11:40:39;9.48;;;4.05;;
6133;SDS011;3098;42.678;23.364;2023-04-24T11:43:06;6.65;;;4.07;;
6133;SDS011;3098;42.678;23.364;2023-04-24T11:45:35;13.02;;;6.38;;
6133;SDS011;3098;42.678;23.364;2023-04-24T11:48:04;7.15;;;3.67;;
6133;SDS011;3098;42.678;23.364;2023-04-24T11:50:31;6.63;;;3.78;;
6133;SDS011;3098;42.678;23.364;2023-04-24T11:52:58;5.38;;;3.22;;
6133;SDS011;3098;42.678;23.364;2023-04-24T11:55:27;8.98;;;3.50;;
6133;SDS011;3098;42.678;23.364;2023-04-24T11:57:57;6.97;;;4.05;;
6133;SDS011;3098;42.678;23.364;2023-04-24T12:00:26;4.85;;;3.22;;
6133;SDS011;3098;42.678;23.364;2023-04-24T12:03:03;4.22;;;3.17;;
6133;SDS011;3098;42.678;23.364;2023-04-24T12:05:32;4.72;;;3.55;;
6133;SDS011;3098;42.678;23.364;2023-04-24T12:08:00;6.63;;;3.65;;
6133;SDS011;3098;42.678;23.364;2023-04-24T12:10:28;6.68;;;3.50;;
6133;SDS011;3098;42.678;23.364;2023-04-24T12:12:58;5.30;;;3.85;;
6133;SDS011;3098;42.678;23.364;2023-04-24T12:15:25;5.47;;;3.53;;
6133;SDS011;3098;42.678;23.364;2023-04-24T12:17:54;5.65;;;3.63;;
6133;SDS011;3098;42.678;23.364;2023-04-24T12:20:28;3.55;;;3.00;;
6133;SDS011;3098;42.678;23.364;2023-04-24T12:22:57;4.60;;;3.67;;
6133;SDS011;3098;42.678;23.364;2023-04-24T12:25:26;5.43;;;3.55;;
6133;SDS011;3098;42.678;23.364;2023-04-24T12:27:55;5.30;;;3.60;;
6133;SDS011;3098;42.678;23.364;2023-04-24T12:30:40;8.70;;;4.00;;
6133;SDS011;3098;42.678;23.364;2023-04-24T12:33:10;4.90;;;3.50;;
6133;SDS011;3098;42.678;23.364;2023-04-24T12:35:39;9.30;;;2.42;;
6133;SDS011;3098;42.678;23.364;2023-04-24T12:38:08;5.60;;;2.50;;
6133;SDS011;3098;42.678;23.364;2023-04-24T12:40:37;4.93;;;2.53;;
6133;SDS011;3098;42.678;23.364;2023-04-24T12:43:12;5.15;;;2.97;;
6133;SDS011;3098;42.678;23.364;2023-04-24T12:45:42;4.13;;;3.10;;
6133;SDS011;3098;42.678;23.364;2023-04-24T12:48:10;5.03;;;3.10;;
6133;SDS011;3098;42.678;23.364;2023-04-24T12:50:39;6.55;;;3.20;;
6133;SDS011;3098;42.678;23.364;2023-04-24T12:53:07;5.68;;;3.42;;
6133;SDS011;3098;42.678;23.364;2023-04-24T12:55:35;4.60;;;3.35;;
6133;SDS011;3098;42.678;23.364;2023-04-24T12:58:02;7.63;;;3.60;;
6133;SDS011;3098;42.678;23.364;2023-04-24T13:00:29;4.93;;;3.40;;
6133;SDS011;3098;42.678;23.364;2023-04-24T13:02:57;3.83;;;3.42;;
6133;SDS011;3098;42.678;23.364;2023-04-24T13:05:25;5.03;;;3.53;;
6133;SDS011;3098;42.678;23.364;2023-04-24T13:07:53;6.07;;;3.20;;
6133;SDS011;3098;42.678;23.364;2023-04-24T13:10:20;5.50;;;3.83;;
6133;SDS011;3098;42.678;23.364;2023-04-24T13:12:47;4.97;;;3.95;;
6133;SDS011;3098;42.678;23.364;2023-04-24T13:15:15;7.95;;;3.75;;
6133;SDS011;3098;42.678;23.364;2023-04-24T13:17:42;6.65;;;3.75;;
6133;SDS011;3098;42.678;23.364;2023-04-24T13:20:11;7.22;;;3.65;;
6133;SDS011;3098;42.678;23.364;2023-04-24T13:22:38;7.63;;;3.90;;
6133;SDS011;3098;42.678;23.364;2023-04-24T13:25:05;6.60;;;3.55;;
6133;SDS011;3098;42.678;23.364;2023-04-24T13:27:34;5.45;;;3.47;;
6133;SDS011;3098;42.678;23.364;2023-04-24T13:30:01;5.05;;;3.50;;
6133;SDS011;3098;42.678;23.364;2023-04-24T13:32:29;8.00;;;4.13;;
6133;SDS011;3098;42.678;23.364;2023-04-24T13:34:56;7.18;;;3.60;;
6133;SDS011;3098;42.678;23.364;2023-04-24T13:37:25;5.28;;;3.60;;
6133;SDS011;3098;42.678;23.364;2023-04-24T13:39:53;4.78;;;3.45;;
6133;SDS011;3098;42.678;23.364;2023-04-24T13:42:20;8.27;;;4.00;;
6133;SDS011;3098;42.678;23.364;2023-04-24T13:44:47;5.10;;;3.97;;
6133;SDS011;3098;42.678;23.364;2023-04-24T13:47:16;7.78;;;4.28;;
6133;SDS011;3098;42.678;23.364;2023-04-24T13:49:44;6.90;;;3.95;;
6133;SDS011;3098;42.678;23.364;2023-04-24T13:52:11;6.97;;;4.07;;
6133;SDS011;3098;42.678;23.364;2023-04-24T13:54:40;5.72;;;3.85;;
6133;SDS011;3098;42.678;23.364;2023-04-24T13:57:07;6.07;;;4.05;;
6133;SDS011;3098;42.678;23.364;2023-04-24T13:59:34;4.95;;;3.70;;
6133;SDS011;3098;42.678;23.364;2023-04-24T14:02:03;12.35;;;4.15;;
6133;SDS011;3098;42.678;23.364;2023-04-24T14:04:30;7.43;;;4.38;;
6133;SDS011;3098;42.678;23.364;2023-04-24T14:06:57;6.38;;;3.88;;
6133;SDS011;3098;42.678;23.364;2023-04-24T14:09:31;8.55;;;4.18;;
6133;SDS011;3098;42.678;23.364;2023-04-24T14:11:59;7.60;;;3.78;;
6133;SDS011;3098;42.678;23.364;2023-04-24T14:14:29;7.28;;;3.70;;
6133;SDS011;3098;42.678;23.364;2023-04-24T14:16:57;6.38;;;3.50;;
6133;SDS011;3098;42.678;23.364;2023-04-24T14:19:24;5.07;;;3.33;;
6133;SDS011;3098;42.678;23.364;2023-04-24T14:21:52;10.68;;;3.75;;
6133;SDS011;3098;42.678;23.364;2023-04-24T14:24:23;6.18;;;3.55;;
6133;SDS011;3098;42.678;23.364;2023-04-24T14:26:55;6.45;;;3.60;;
6133;SDS011;3098;42.678;23.364;2023-04-24T14:29:24;5.15;;;2.70;;
6133;SDS011;3098;42.678;23.364;2023-04-24T14:31:52;4.90;;;3.10;;
6133;SDS011;3098;42.678;23.364;2023-04-24T14:34:22;14.48;;;3.97;;
6133;SDS011;3098;42.678;23.364;2023-04-24T14:36:49;6.57;;;3.67;;
6133;SDS011;3098;42.678;23.364;2023-04-24T14:39:17;5.60;;;3.63;;
6133;SDS011;3098;42.678;23.364;2023-04-24T14:41:45;6.97;;;3.67;;
6133;SDS011;3098;42.678;23.364;2023-04-24T14:44:13;5.97;;;3.42;;
6133;SDS011;3098;42.678;23.364;2023-04-24T14:46:42;5.25;;;3.60;;
6133;SDS011;3098;42.678;23.364;2023-04-24T14:49:09;5.15;;;3.33;;
6133;SDS011;3098;42.678;23.364;2023-04-24T14:51:37;5.18;;;3.22;;
6133;SDS011;3098;42.678;23.364;2023-04-24T14:54:05;4.63;;;3.35;;
6133;SDS011;3098;42.678;23.364;2023-04-24T14:56:33;5.88;;;2.92;;
6133;SDS011;3098;42.678;23.364;2023-04-24T14:59:00;5.38;;;2.90;;
6133;SDS011;3098;42.678;23.364;2023-04-24T15:01:29;4.90;;;3.08;;
6133;SDS011;3098;42.678;23.364;2023-04-24T15:03:58;3.78;;;2.65;;
6133;SDS011;3098;42.678;23.364;2023-04-24T15:06:25;6.03;;;3.45;;
6133;SDS011;3098;42.678;23.364;2023-04-24T15:08:52;6.53;;;3.33;;